Estación Meteorológica Peña el Pijo (Robertgarden) [ 12/11/19 23:04:21 CET ]

Fecha Hora Presion(HPa) Temp (°C) Humedad % Rocio (°C) Viento ( m/s) Direccion Lluvia 1Hora(mm) Lluvia 24H(mm) LLuvia Total(mm)
2019-Aug-30 01:01:36 1015.200 16.5 76 12.2         385.10
2019-Aug-30 02:01:34 1015.300 16.2 78 12.4         385.10
2019-Aug-30 03:01:48 1014.900 15.5 79 11.9         385.10
2019-Aug-30 04:01:45 1014.400 15.1 80 11.7         385.10
2019-Aug-30 05:01:41 1014.300 14.9 80 11.5         385.10
2019-Aug-30 06:08:28 1014.500 14.4 81 11.2         385.10
2019-Aug-30 07:01:45 1014.700 13.6 82 10.6         385.10
2019-Aug-30 08:01:22 1014.900 13.3 84 10.6         385.10
2019-Aug-30 09:01:48 1015.200 16.4 84 13.7         385.10
2019-Aug-30 10:02:04 1015.000 22.8 65 15.9         385.10
2019-Aug-30 11:01:58 1015.000 26.2 50 15.0         385.10
2019-Aug-30 12:01:48 1014.700 29.2 42 15.0         385.10
2019-Aug-30 13:01:50 1014.600 31.9 35 14.4         385.10
2019-Aug-30 14:01:35 1014.100 32.6 34 14.6         385.10
2019-Aug-30 15:02:01 1013.800 29.9 37 13.6         385.10
2019-Aug-30 16:01:41 1013.200 31.5 35 14.1         385.10
2019-Aug-30 17:01:50 1012.600 27.8 41 13.4         385.10
2019-Aug-30 18:01:51 1012.400 27.5 41 13.1         385.10
2019-Aug-30 19:01:46 1012.600 28.4 42 14.2         385.10
2019-Aug-30 20:01:39 1012.700 25.2 52 14.6         385.10
2019-Aug-30 21:01:50 1013.300 23.5 57 14.5         385.10
2019-Aug-30 22:02:03 1015.000 22.4 53 12.3         385.10
2019-Aug-30 23:01:51 1015.200 18.3 69 12.5         385.10

Temperatura Máxima:32°    Temperatura Mínima:13°
Presión Máxima:1015.300 Hpa    Presión Mínima:1012.400 Hpa


Volver